createdAt,value
2019-04-11T00:00:50.674Z,52.50
2019-04-11T00:03:18.183Z,52.60
2019-04-11T00:05:45.652Z,52.60
2019-04-11T00:08:14.095Z,53.20
2019-04-11T00:10:42.293Z,52.20
2019-04-11T00:13:19.770Z,52.90
2019-04-11T00:15:40.429Z,52.90
2019-04-11T00:18:08.343Z,52.50
2019-04-11T00:20:36.181Z,52.80
2019-04-11T00:23:03.870Z,53.50
2019-04-11T00:25:31.735Z,53.50
2019-04-11T00:27:59.737Z,54.00
2019-04-11T00:30:28.195Z,53.90
2019-04-11T00:32:56.124Z,54.00
2019-04-11T00:35:23.870Z,53.70
2019-04-11T00:37:51.575Z,53.50
2019-04-11T00:40:19.978Z,53.50
2019-04-11T00:42:47.632Z,54.20
2019-04-11T00:45:15.861Z,53.50
2019-04-11T00:47:43.441Z,53.70
2019-04-11T00:50:10.871Z,53.90
2019-04-11T00:52:39.160Z,53.90
2019-04-11T00:55:07.194Z,54.30
2019-04-11T00:57:36.981Z,54.50
2019-04-11T01:00:06.865Z,54.60
2019-04-11T01:02:35.892Z,54.50
2019-04-11T01:05:03.686Z,53.70
2019-04-11T01:07:31.182Z,54.20
2019-04-11T01:09:58.941Z,53.90
2019-04-11T01:12:26.804Z,54.80
2019-04-11T01:14:55.306Z,55.50
2019-04-11T01:17:23.332Z,54.80
2019-04-11T01:19:51.182Z,54.80
2019-04-11T01:22:18.745Z,54.80
2019-04-11T01:24:46.407Z,55.20
2019-04-11T01:27:16.019Z,55.40
2019-04-11T01:29:44.000Z,55.10
2019-04-11T01:32:12.146Z,55.70
2019-04-11T01:34:40.439Z,55.80
2019-04-11T01:37:09.195Z,56.10
2019-04-11T01:40:09.682Z,55.70
2019-04-11T01:42:37.681Z,55.70
2019-04-11T01:45:05.530Z,56.00
2019-04-11T01:47:45.193Z,55.40
2019-04-11T01:50:14.747Z,56.00
2019-04-11T01:52:43.242Z,56.30
2019-04-11T01:55:10.659Z,56.60
2019-04-11T01:57:38.188Z,56.40
2019-04-11T02:00:06.209Z,56.40
2019-04-11T02:02:44.394Z,56.40
2019-04-11T02:05:38.052Z,56.70
2019-04-11T02:08:05.526Z,57.00
2019-04-11T02:10:32.983Z,57.00
2019-04-11T02:13:01.725Z,56.90
2019-04-11T02:15:30.443Z,56.60
2019-04-11T02:17:59.022Z,57.00
2019-04-11T02:20:27.161Z,57.20
2019-04-11T02:23:13.064Z,57.20
2019-04-11T02:25:49.299Z,57.80
2019-04-11T02:28:24.423Z,57.50
2019-04-11T02:30:54.423Z,58.00
2019-04-11T02:33:24.794Z,57.40
2019-04-11T02:35:52.127Z,58.10
2019-04-11T02:38:21.342Z,57.80
2019-04-11T02:40:49.876Z,57.50
2019-04-11T02:43:17.993Z,58.30
2019-04-11T02:45:58.763Z,58.40
2019-04-11T02:48:16.289Z,59.00
2019-04-11T02:50:45.729Z,59.00
2019-04-11T02:53:14.802Z,58.60
2019-04-11T02:55:43.842Z,59.20
2019-04-11T02:58:12.495Z,59.20
2019-04-11T03:00:40.448Z,59.50
2019-04-11T03:03:10.296Z,59.30
2019-04-11T03:05:39.406Z,60.30
2019-04-11T03:08:11.519Z,60.30
2019-04-11T03:10:37.805Z,60.30
2019-04-11T03:13:05.930Z,60.90
2019-04-11T03:15:59.485Z,60.30
2019-04-11T03:18:35.795Z,60.30
2019-04-11T03:20:53.409Z,60.10
2019-04-11T03:23:18.613Z,60.30
2019-04-11T03:25:46.866Z,60.30
2019-04-11T03:28:19.212Z,60.70
2019-04-11T03:31:07.126Z,60.50
2019-04-11T03:34:03.089Z,60.30
2019-04-11T03:38:38.467Z,59.60
2019-04-11T03:41:00.358Z,59.90
2019-04-11T03:43:28.157Z,60.50
2019-04-11T03:46:02.040Z,60.30
2019-04-11T03:48:27.663Z,59.90
2019-04-11T03:50:40.295Z,59.90
2019-04-11T03:53:09.295Z,59.90
2019-04-11T03:55:39.074Z,59.90
2019-04-11T03:58:08.504Z,60.50
2019-04-11T04:00:40.625Z,60.50
2019-04-11T04:03:06.384Z,60.90
2019-04-11T04:05:36.741Z,60.70
2019-04-11T04:08:04.604Z,61.00
2019-04-11T04:10:36.178Z,62.30
2019-04-11T04:13:05.386Z,62.30
2019-04-11T04:16:08.164Z,62.20
2019-04-11T04:18:47.810Z,60.90
2019-04-11T04:21:38.783Z,61.00
2019-04-11T04:24:27.471Z,60.90
2019-04-11T04:26:56.924Z,60.70
2019-04-11T04:29:26.787Z,61.00
2019-04-11T04:31:55.193Z,61.80
2019-04-11T04:34:23.892Z,61.80
2019-04-11T04:36:55.621Z,62.20
2019-04-11T04:39:24.873Z,62.50
2019-04-11T04:42:01.228Z,62.50
2019-04-11T04:44:24.192Z,62.30
2019-04-11T04:47:00.289Z,62.50
2019-04-11T04:49:21.566Z,62.30
2019-04-11T04:51:49.057Z,61.80
2019-04-11T04:54:16.554Z,62.00
2019-04-11T04:56:46.010Z,62.30
2019-04-11T04:59:14.656Z,62.30
2019-04-11T05:01:44.252Z,63.10
2019-04-11T05:04:13.974Z,63.30
2019-04-11T05:06:44.806Z,63.10
2019-04-11T05:09:12.638Z,63.30
2019-04-11T05:11:40.467Z,62.90
2019-04-11T05:14:08.136Z,62.50
2019-04-11T05:16:35.871Z,62.70
2019-04-11T05:19:04.490Z,63.10
2019-04-11T05:21:33.012Z,62.30
2019-04-11T05:24:01.911Z,62.90
2019-04-11T05:26:29.577Z,62.70
2019-04-11T05:28:57.210Z,62.50
2019-04-11T05:31:24.922Z,61.80
2019-04-11T05:33:52.436Z,62.20
2019-04-11T05:36:20.650Z,62.50
2019-04-11T05:38:48.644Z,61.60
2019-04-11T05:41:17.345Z,61.00
2019-04-11T05:43:45.241Z,59.50
2019-04-11T05:46:26.046Z,59.80
2019-04-11T05:49:05.408Z,58.90
2019-04-11T05:51:39.949Z,59.00
2019-04-11T05:54:07.425Z,58.70
2019-04-11T05:56:33.429Z,58.90
2019-04-11T05:59:07.601Z,58.00
2019-04-11T06:01:39.878Z,57.20
2019-04-11T06:04:15.261Z,56.60
2019-04-11T06:06:52.792Z,56.70
2019-04-11T06:09:24.392Z,56.00
2019-04-11T06:12:14.495Z,56.00
2019-04-11T06:14:47.268Z,55.40
2019-04-11T06:17:16.531Z,55.40
2019-04-11T06:20:02.439Z,55.50
2019-04-11T06:22:29.945Z,55.40
2019-04-11T06:25:18.807Z,55.10
2019-04-11T06:27:49.575Z,54.50
2019-04-11T06:30:36.755Z,54.50
2019-04-11T06:33:14.268Z,54.60
2019-04-11T06:36:16.005Z,54.20
2019-04-11T06:39:03.331Z,53.10
2019-04-11T06:42:04.138Z,52.30
2019-04-11T06:44:52.126Z,51.10
2019-04-11T06:47:49.173Z,50.30
2019-04-11T06:50:51.379Z,50.70
2019-04-11T06:53:23.819Z,50.80
2019-04-11T06:56:18.962Z,50.70
2019-04-11T06:58:54.127Z,49.00
2019-04-11T07:01:25.760Z,48.50
2019-04-11T07:03:57.512Z,47.90
2019-04-11T07:06:29.415Z,47.20
2019-04-11T07:09:20.199Z,46.10
2019-04-11T07:11:50.705Z,46.70
2019-04-11T07:14:33.254Z,45.80
2019-04-11T07:17:18.953Z,45.00
2019-04-11T07:20:13.819Z,43.30
2019-04-11T07:22:59.774Z,41.70
2019-04-11T07:25:45.617Z,40.30
2019-04-11T07:28:21.423Z,35.90
2019-04-11T07:31:07.216Z,33.40
2019-04-11T07:33:53.970Z,31.90
2019-04-11T07:36:40.577Z,30.40
2019-04-11T07:39:22.831Z,27.70
2019-04-11T07:42:09.311Z,28.00
2019-04-11T07:44:37.202Z,26.60
2019-04-11T07:47:24.914Z,25.80
2019-04-11T07:49:53.431Z,25.20
2019-04-11T07:52:21.102Z,24.70
2019-04-11T07:54:55.760Z,24.60
2019-04-11T07:57:28.615Z,23.60
2019-04-11T08:00:19.381Z,22.90
2019-04-11T08:03:10.656Z,23.00
2019-04-11T08:06:10.912Z,21.10
2019-04-11T08:08:45.549Z,22.20
2019-04-11T08:11:16.375Z,22.00
2019-04-11T08:14:04.152Z,22.30
2019-04-11T08:16:51.032Z,21.20
2019-04-11T08:19:36.854Z,20.20
2019-04-11T08:22:28.991Z,20.40
2019-04-11T08:25:09.354Z,20.50
2019-04-11T08:27:50.939Z,20.00
2019-04-11T08:30:09.074Z,20.20
2019-04-11T08:32:44.151Z,20.80
2019-04-11T08:35:30.404Z,20.00
2019-04-11T08:38:08.011Z,20.20
2019-04-11T08:40:45.171Z,20.60
2019-04-11T08:43:27.473Z,20.60
2019-04-11T08:46:02.665Z,19.60
2019-04-11T08:48:37.221Z,20.00
2019-04-11T08:51:08.087Z,19.20
2019-04-11T08:53:55.203Z,18.60
2019-04-11T08:56:23.123Z,18.90
2019-04-11T08:59:37.765Z,19.50
2019-04-11T09:02:06.825Z,21.10
2019-04-11T09:05:09.686Z,22.20
2019-04-11T09:07:38.024Z,22.60
2019-04-11T09:10:24.185Z,22.70
2019-04-11T09:12:58.563Z,22.90
2019-04-11T09:15:46.801Z,23.40
2019-04-11T09:18:15.325Z,22.40
2019-04-11T09:21:02.358Z,21.40
2019-04-11T09:23:30.123Z,20.20
2019-04-11T09:26:32.461Z,18.90
2019-04-11T09:29:01.826Z,18.70
2019-04-11T09:31:49.360Z,17.30
2019-04-11T09:34:43.955Z,16.00
2019-04-11T09:37:33.688Z,14.90
2019-04-11T09:40:10.137Z,14.60
2019-04-11T09:42:59.864Z,14.80
2019-04-11T09:45:45.802Z,14.20
2019-04-11T09:48:33.657Z,14.20
2019-04-11T09:51:09.309Z,14.10
2019-04-11T09:53:38.749Z,13.00
2019-04-11T09:56:31.728Z,14.20
2019-04-11T09:59:02.956Z,14.10
2019-04-11T10:01:49.921Z,13.90
2019-04-11T10:04:18.842Z,13.50
2019-04-11T10:07:24.203Z,12.60
2019-04-11T10:10:24.542Z,13.30
2019-04-11T10:13:18.658Z,12.60
2019-04-11T10:16:09.658Z,12.60
2019-04-11T10:19:08.959Z,12.90
2019-04-11T10:21:37.602Z,12.40
2019-04-11T10:24:24.674Z,11.40
2019-04-11T10:26:58.488Z,11.10
2019-04-11T10:29:44.104Z,11.30
2019-04-11T10:32:12.155Z,10.40
2019-04-11T10:34:47.940Z,11.10
2019-04-11T10:37:17.965Z,11.20
2019-04-11T10:40:08.055Z,11.10
2019-04-11T10:42:36.782Z,10.80
2019-04-11T10:45:28.871Z,12.30
2019-04-11T10:48:05.359Z,11.90
2019-04-11T10:50:52.675Z,10.80
2019-04-11T10:53:22.880Z,10.60
2019-04-11T10:56:10.738Z,11.30
2019-04-11T10:59:05.143Z,12.10
2019-04-11T11:01:56.097Z,11.90
2019-04-11T11:04:27.624Z,13.40
2019-04-11T11:07:04.996Z,12.60
2019-04-11T11:09:40.326Z,12.30
2019-04-11T11:12:19.144Z,11.50
2019-04-11T11:15:19.808Z,12.20
2019-04-11T11:18:39.807Z,11.80
2019-04-11T11:20:50.207Z,11.80
2019-04-11T11:23:20.968Z,11.20
2019-04-11T11:25:58.891Z,11.20
2019-04-11T11:28:27.099Z,11.40
2019-04-11T11:31:08.752Z,9.90
2019-04-11T11:33:36.758Z,10.70
2019-04-11T11:36:23.881Z,11.30
2019-04-11T11:39:08.916Z,11.20
2019-04-11T11:41:54.769Z,10.60
2019-04-11T11:44:25.602Z,12.00
2019-04-11T11:47:11.940Z,12.00
2019-04-11T11:49:50.549Z,13.00
2019-04-11T11:52:31.948Z,12.70
2019-04-11T11:54:56.779Z,12.30
2019-04-11T11:57:39.258Z,12.40
2019-04-11T12:00:19.562Z,11.90
2019-04-11T12:03:09.314Z,10.50
2019-04-11T12:05:48.240Z,11.80
2019-04-11T12:08:30.807Z,12.90
2019-04-11T12:11:05.954Z,12.20
2019-04-11T12:13:50.074Z,10.60
2019-04-11T12:16:36.259Z,11.30
2019-04-11T12:19:24.675Z,11.70
2019-04-11T12:21:55.534Z,11.00
2019-04-11T12:24:40.574Z,12.30
2019-04-11T12:27:28.791Z,12.60
2019-04-11T12:30:23.422Z,14.60
2019-04-11T12:33:05.770Z,15.30
2019-04-11T12:35:44.124Z,14.00
2019-04-11T12:38:20.375Z,14.00
2019-04-11T12:41:07.381Z,14.50
2019-04-11T12:43:51.915Z,14.60
2019-04-11T12:46:44.964Z,15.00
2019-04-11T12:49:24.280Z,14.50
2019-04-11T12:52:09.906Z,14.40
2019-04-11T12:54:38.009Z,15.20
2019-04-11T12:57:23.792Z,13.90
2019-04-11T12:59:59.107Z,14.60
2019-04-11T13:02:46.345Z,14.70
2019-04-11T13:05:14.972Z,14.10
2019-04-11T13:07:59.285Z,12.90
2019-04-11T13:10:31.950Z,14.10
2019-04-11T13:13:19.137Z,13.70
2019-04-11T13:15:54.551Z,12.20
2019-04-11T13:18:39.380Z,11.60
2019-04-11T13:21:26.542Z,11.90
2019-04-11T13:24:13.523Z,12.80
2019-04-11T13:27:00.588Z,12.00
2019-04-11T13:29:50.544Z,14.20
2019-04-11T13:32:46.375Z,13.50
2019-04-11T13:35:19.030Z,13.40
2019-04-11T13:38:09.224Z,13.40
2019-04-11T13:41:01.943Z,13.50
2019-04-11T13:43:33.845Z,14.60
2019-04-11T13:46:12.960Z,14.80
2019-04-11T13:49:02.218Z,13.90
2019-04-11T13:51:40.126Z,12.50
2019-04-11T13:54:25.937Z,12.70
2019-04-11T13:57:15.812Z,14.50
2019-04-11T14:00:01.693Z,15.00
2019-04-11T14:02:51.077Z,15.50
2019-04-11T14:05:12.167Z,15.20
2019-04-11T14:07:39.662Z,15.70
2019-04-11T14:10:08.363Z,16.70
2019-04-11T14:12:36.467Z,17.90
2019-04-11T14:15:07.004Z,18.40
2019-04-11T14:17:58.148Z,17.10
2019-04-11T14:21:01.991Z,16.50
2019-04-11T14:23:36.581Z,15.80
2019-04-11T14:26:23.577Z,14.30
2019-04-11T14:29:16.625Z,15.00
2019-04-11T14:32:03.641Z,16.50
2019-04-11T14:34:54.768Z,17.20
2019-04-11T14:37:40.049Z,18.50
2019-04-11T14:40:30.626Z,17.50
2019-04-11T14:43:30.805Z,16.70
2019-04-11T14:46:20.762Z,16.60
2019-04-11T14:49:00.410Z,15.80
2019-04-11T14:51:58.384Z,16.00
2019-04-11T14:54:40.963Z,16.90
2019-04-11T14:57:31.126Z,18.00
2019-04-11T15:00:08.424Z,18.10
2019-04-11T15:02:55.739Z,19.00
2019-04-11T15:06:01.091Z,19.30
2019-04-11T15:08:50.895Z,19.50
2019-04-11T15:11:36.691Z,18.60
2019-04-11T15:14:29.538Z,18.60
2019-04-11T15:17:15.940Z,18.20
2019-04-11T15:19:47.193Z,19.00
2019-04-11T15:22:28.961Z,19.90
2019-04-11T15:25:02.549Z,20.30
2019-04-11T15:28:04.857Z,21.70
2019-04-11T15:30:33.753Z,21.90
2019-04-11T15:33:20.018Z,23.30
2019-04-11T15:35:47.747Z,23.40
2019-04-11T15:38:36.192Z,24.20
2019-04-11T15:41:04.790Z,23.80
2019-04-11T15:43:51.656Z,24.40
2019-04-11T15:46:24.382Z,25.10
2019-04-11T15:49:20.586Z,25.30
2019-04-11T15:51:54.113Z,25.10
2019-04-11T15:54:41.123Z,25.60
2019-04-11T15:57:43.661Z,26.20
2019-04-11T16:00:31.403Z,26.10
2019-04-11T16:03:00.937Z,25.40
2019-04-11T16:05:50.714Z,26.20
2019-04-11T16:08:28.664Z,25.90
2019-04-11T16:11:21.820Z,26.50
2019-04-11T16:14:10.853Z,26.90
2019-04-11T16:16:46.965Z,26.70
2019-04-11T16:19:36.088Z,26.60
2019-04-11T16:22:24.680Z,27.00
2019-04-11T16:24:53.034Z,26.90
2019-04-11T16:27:46.065Z,27.30
2019-04-11T16:30:14.829Z,26.80
2019-04-11T16:32:46.644Z,25.70
2019-04-11T16:35:26.072Z,27.00
2019-04-11T16:38:00.357Z,27.30
2019-04-11T16:40:42.701Z,27.50
2019-04-11T16:43:10.210Z,27.70
2019-04-11T16:46:01.613Z,28.10
2019-04-11T16:48:29.457Z,28.10
2019-04-11T16:50:57.098Z,27.80
2019-04-11T16:53:24.753Z,28.00
2019-04-11T16:55:53.872Z,28.30
2019-04-11T16:58:21.662Z,27.60
2019-04-11T17:00:52.106Z,28.20
2019-04-11T17:03:18.743Z,28.50
2019-04-11T17:06:14.719Z,28.60
2019-04-11T17:08:47.241Z,29.30
2019-04-11T17:11:19.272Z,29.80
2019-04-11T17:13:46.860Z,29.80
2019-04-11T17:16:18.262Z,30.20
2019-04-11T17:18:45.637Z,30.70
2019-04-11T17:21:13.392Z,32.80
2019-04-11T17:23:41.101Z,32.70
2019-04-11T17:26:08.655Z,32.40
2019-04-11T17:28:36.162Z,32.80
2019-04-11T17:31:03.815Z,32.20
2019-04-11T17:33:31.403Z,32.40
2019-04-11T17:36:02.055Z,33.30
2019-04-11T17:38:28.430Z,33.70
2019-04-11T17:40:56.066Z,33.30
2019-04-11T17:43:23.550Z,33.70
2019-04-11T17:45:51.030Z,33.90
2019-04-11T17:48:21.390Z,34.50
2019-04-11T17:50:49.023Z,34.20
2019-04-11T17:53:16.575Z,34.50
2019-04-11T17:55:44.228Z,34.20
2019-04-11T17:58:12.000Z,34.70
2019-04-11T18:00:41.880Z,34.70
2019-04-11T18:03:11.758Z,35.00
2019-04-11T18:05:38.955Z,35.40
2019-04-11T18:08:06.730Z,35.70
2019-04-11T18:10:34.246Z,36.30
2019-04-11T18:13:02.438Z,36.80
2019-04-11T18:15:31.140Z,36.30
2019-04-11T18:17:59.486Z,36.90
2019-04-11T18:20:27.367Z,37.40
2019-04-11T18:22:55.362Z,37.90
2019-04-11T18:25:25.009Z,37.90
2019-04-11T18:27:52.539Z,38.20
2019-04-11T18:30:20.935Z,38.20
2019-04-11T18:32:49.770Z,37.60
2019-04-11T18:35:17.307Z,37.70
2019-04-11T18:37:45.005Z,37.90
2019-04-11T18:40:13.687Z,38.50
2019-04-11T18:42:41.266Z,38.30
2019-04-11T18:45:09.133Z,38.30
2019-04-11T18:47:37.909Z,38.00
2019-04-11T18:50:07.199Z,38.60
2019-04-11T18:52:35.987Z,38.20
2019-04-11T18:55:05.741Z,38.20
2019-04-11T18:57:33.356Z,38.30
2019-04-11T19:00:02.374Z,38.60
2019-04-11T19:02:32.688Z,38.50
2019-04-11T19:05:02.108Z,38.00
2019-04-11T19:07:30.984Z,38.50
2019-04-11T19:09:58.654Z,38.20
2019-04-11T19:12:26.279Z,38.80
2019-04-11T19:14:54.162Z,38.80
2019-04-11T19:17:21.659Z,39.50
2019-04-11T19:19:49.410Z,39.80
2019-04-11T19:22:19.612Z,39.40
2019-04-11T19:24:47.736Z,39.40
2019-04-11T19:27:16.553Z,39.40
2019-04-11T19:29:45.073Z,39.10
2019-04-11T19:32:12.684Z,39.70
2019-04-11T19:34:40.376Z,39.10
2019-04-11T19:37:11.674Z,39.10
2019-04-11T19:39:37.738Z,39.20
2019-04-11T19:42:09.150Z,39.10
2019-04-11T19:44:35.466Z,39.80
2019-04-11T19:47:03.120Z,39.70
2019-04-11T19:49:31.757Z,39.70
2019-04-11T19:52:01.532Z,40.00
2019-04-11T19:54:32.788Z,39.70
2019-04-11T19:57:05.386Z,39.70
2019-04-11T19:59:33.018Z,40.80
2019-04-11T20:02:00.526Z,40.50
2019-04-11T20:04:28.041Z,40.50
2019-04-11T20:06:55.730Z,39.80
2019-04-11T20:09:24.142Z,40.00
2019-04-11T20:11:51.812Z,40.80
2019-04-11T20:14:19.384Z,40.60
2019-04-11T20:16:48.872Z,41.10
2019-04-11T20:19:16.454Z,41.80
2019-04-11T20:21:44.309Z,41.10
2019-04-11T20:24:14.442Z,41.50
2019-04-11T20:26:42.837Z,42.30
2019-04-11T20:29:10.337Z,43.00
2019-04-11T20:31:37.836Z,42.30
2019-04-11T20:34:07.284Z,42.90
2019-04-11T20:36:35.103Z,42.10
2019-04-11T20:39:04.912Z,42.00
2019-04-11T20:41:32.877Z,42.70
2019-04-11T20:44:00.397Z,42.30
2019-04-11T20:46:29.173Z,42.70
2019-04-11T20:48:58.893Z,43.50
2019-04-11T20:51:26.609Z,43.20
2019-04-11T20:53:54.367Z,43.20
2019-04-11T20:56:24.356Z,44.10
2019-04-11T20:58:51.417Z,44.40
2019-04-11T21:01:19.013Z,44.40
2019-04-11T21:03:46.584Z,45.00
2019-04-11T21:06:14.320Z,45.30
2019-04-11T21:08:41.783Z,44.90
2019-04-11T21:11:09.283Z,45.50
2019-04-11T21:13:38.409Z,45.50
2019-04-11T21:16:06.203Z,45.90
2019-04-11T21:18:33.705Z,46.50
2019-04-11T21:21:01.234Z,46.70
2019-04-11T21:23:29.641Z,47.00
2019-04-11T21:25:59.055Z,47.50
2019-04-11T21:28:27.849Z,47.20
2019-04-11T21:31:00.129Z,47.60
2019-04-11T21:33:27.885Z,47.90
2019-04-11T21:35:55.487Z,48.20
2019-04-11T21:38:22.944Z,48.40
2019-04-11T21:40:50.507Z,48.70
2019-04-11T21:43:18.185Z,48.70
2019-04-11T21:45:45.743Z,48.50
2019-04-11T21:48:13.372Z,49.00
2019-04-11T21:50:41.299Z,49.10
2019-04-11T21:53:08.884Z,49.10
2019-04-11T21:55:36.573Z,49.10
2019-04-11T21:58:04.226Z,49.10
2019-04-11T22:00:38.992Z,50.00
2019-04-11T22:03:08.972Z,50.20
2019-04-11T22:05:36.612Z,50.50
2019-04-11T22:08:04.407Z,50.70
2019-04-11T22:10:32.498Z,50.70
2019-04-11T22:13:00.067Z,50.70
2019-04-11T22:15:27.564Z,51.30
2019-04-11T22:17:56.275Z,51.00
2019-04-11T22:20:24.047Z,52.00
2019-04-11T22:22:51.542Z,50.80
2019-04-11T22:25:18.946Z,52.00
2019-04-11T22:27:46.450Z,52.30
2019-04-11T22:30:16.642Z,52.00
2019-04-11T22:32:45.974Z,52.20
2019-04-11T22:35:13.463Z,52.80
2019-04-11T22:37:40.941Z,52.50
2019-04-11T22:40:08.535Z,52.90
2019-04-11T22:42:35.978Z,52.80
2019-04-11T22:45:05.918Z,53.20
2019-04-11T22:47:35.900Z,53.70
2019-04-11T22:50:04.657Z,53.20
2019-04-11T22:52:32.257Z,54.00
2019-04-11T22:55:00.064Z,53.50
2019-04-11T22:57:27.712Z,53.90
2019-04-11T22:59:55.413Z,53.70
2019-04-11T23:02:33.171Z,53.90
2019-04-11T23:05:00.716Z,53.90
2019-04-11T23:07:28.264Z,54.20
2019-04-11T23:09:55.761Z,54.20
2019-04-11T23:12:23.223Z,53.90
2019-04-11T23:14:50.739Z,54.00
2019-04-11T23:17:18.300Z,54.20
2019-04-11T23:19:45.879Z,54.60
2019-04-11T23:22:13.339Z,54.90
2019-04-11T23:24:40.896Z,54.80
2019-04-11T23:27:09.485Z,55.20
2019-04-11T23:29:37.017Z,55.40
2019-04-11T23:32:04.499Z,55.50
2019-04-11T23:34:32.248Z,55.40
2019-04-11T23:36:59.805Z,55.50
2019-04-11T23:39:27.356Z,56.00
2019-04-11T23:41:55.086Z,56.30
2019-04-11T23:44:22.595Z,56.40
2019-04-11T23:46:52.031Z,56.60
2019-04-11T23:49:19.473Z,56.40
2019-04-11T23:51:47.154Z,56.70
2019-04-11T23:54:22.710Z,57.40
2019-04-11T23:56:44.040Z,57.50
2019-04-11T23:59:11.614Z,58.00
